createdAt,value
2023-04-02T00:01:38.011Z,2.03
2023-04-02T00:04:16.397Z,2.45
2023-04-02T00:06:49.297Z,4.47
2023-04-02T00:09:29.942Z,1.42
2023-04-02T00:12:00.477Z,1.77
2023-04-02T00:14:31.471Z,1.90
2023-04-02T00:17:01.816Z,1.38
2023-04-02T00:19:34.785Z,2.17
2023-04-02T00:22:05.322Z,1.40
2023-04-02T00:24:34.839Z,1.85
2023-04-02T00:27:04.976Z,1.65
2023-04-02T00:29:33.255Z,1.40
2023-04-02T00:32:01.646Z,3.22
2023-04-02T00:34:33.041Z,2.40
2023-04-02T00:37:01.942Z,1.77
2023-04-02T00:39:33.796Z,1.90
2023-04-02T00:42:05.860Z,1.40
2023-04-02T00:44:38.028Z,2.47
2023-04-02T00:47:15.055Z,1.30
2023-04-02T00:49:44.376Z,1.52
2023-04-02T00:52:15.783Z,1.00
2023-04-02T00:54:48.341Z,1.45
2023-04-02T00:57:23.362Z,2.58
2023-04-02T00:59:58.132Z,1.73
2023-04-02T01:02:33.062Z,2.15
2023-04-02T01:05:03.578Z,1.70
2023-04-02T01:07:57.862Z,2.17
2023-04-02T01:10:56.701Z,1.98
2023-04-02T01:13:35.328Z,1.70
2023-04-02T01:16:09.470Z,1.77
2023-04-02T01:18:51.405Z,1.40
2023-04-02T01:21:42.308Z,1.77
2023-04-02T01:24:13.089Z,1.73
2023-04-02T01:26:49.420Z,1.38
2023-04-02T01:29:21.676Z,2.58
2023-04-02T01:31:52.014Z,2.78
2023-04-02T01:34:26.000Z,1.42
2023-04-02T01:37:08.374Z,1.92
2023-04-02T01:39:46.488Z,1.10
2023-04-02T01:42:20.093Z,3.10
2023-04-02T01:44:51.617Z,1.77
2023-04-02T01:47:23.115Z,1.80
2023-04-02T01:49:54.580Z,2.25
2023-04-02T01:52:35.826Z,2.53
2023-04-02T01:55:04.616Z,2.38
2023-04-02T01:57:33.234Z,2.13
2023-04-02T02:00:08.563Z,1.38
2023-04-02T02:02:37.070Z,1.85
2023-04-02T02:05:06.379Z,1.40
2023-04-02T02:07:34.698Z,1.98
2023-04-02T02:10:03.666Z,1.65
2023-04-02T02:12:31.938Z,1.02
2023-04-02T02:15:00.215Z,1.40
2023-04-02T02:17:34.460Z,1.83
2023-04-02T02:20:06.754Z,1.60
2023-04-02T02:22:38.897Z,1.95
2023-04-02T02:25:12.778Z,1.60
2023-04-02T02:28:00.436Z,1.17
2023-04-02T02:30:32.659Z,1.42
2023-04-02T02:33:07.819Z,1.63
2023-04-02T02:35:42.136Z,1.90
2023-04-02T02:38:39.504Z,1.98
2023-04-02T02:41:14.221Z,1.08
2023-04-02T02:43:49.780Z,2.17
2023-04-02T02:46:21.450Z,1.70
2023-04-02T02:48:53.322Z,0.93
2023-04-02T02:51:26.343Z,1.80
2023-04-02T02:54:01.137Z,2.42
2023-04-02T02:56:32.217Z,1.90
2023-04-02T03:01:30.495Z,2.67
2023-04-02T03:04:00.922Z,1.98
2023-04-02T03:06:29.524Z,1.92
2023-04-02T03:09:05.556Z,1.52
2023-04-02T03:11:38.766Z,2.60
2023-04-02T03:14:18.824Z,1.73
2023-04-02T03:16:51.327Z,2.75
2023-04-02T03:19:30.201Z,2.28
2023-04-02T03:22:07.708Z,2.35
2023-04-02T03:24:40.473Z,2.15
2023-04-02T03:27:14.501Z,2.05
2023-04-02T03:29:49.632Z,1.73
2023-04-02T03:32:21.888Z,1.73
2023-04-02T03:34:56.515Z,2.50
2023-04-02T03:37:31.034Z,2.38
2023-04-02T03:40:04.579Z,1.52
2023-04-02T03:42:42.686Z,1.52
2023-04-02T03:45:16.312Z,1.30
2023-04-02T03:47:50.232Z,1.38
2023-04-02T03:50:24.766Z,1.30
2023-04-02T03:52:53.392Z,2.08
2023-04-02T03:55:25.408Z,2.47
2023-04-02T03:58:01.413Z,2.78
2023-04-02T04:00:36.555Z,2.83
2023-04-02T04:03:11.320Z,2.83
2023-04-02T04:05:48.594Z,1.38
2023-04-02T04:08:20.043Z,1.90
2023-04-02T04:10:53.604Z,1.80
2023-04-02T04:13:26.943Z,2.10
2023-04-02T04:16:01.192Z,1.55
2023-04-02T04:18:37.955Z,1.63
2023-04-02T04:21:16.684Z,2.60
2023-04-02T04:23:51.482Z,2.03
2023-04-02T04:26:24.722Z,2.50
2023-04-02T04:29:05.914Z,1.52
2023-04-02T04:34:12.849Z,1.33
2023-04-02T04:36:48.106Z,1.58
2023-04-02T04:39:23.904Z,1.63
2023-04-02T04:41:53.999Z,1.95
2023-04-02T04:44:25.718Z,2.33
2023-04-02T04:47:00.709Z,1.52
2023-04-02T04:49:34.879Z,2.03
2023-04-02T04:52:13.091Z,2.90
2023-04-02T04:54:42.334Z,2.72
2023-04-02T04:57:25.860Z,3.03
2023-04-02T04:59:59.836Z,1.98
2023-04-02T05:02:32.952Z,1.77
2023-04-02T05:05:03.607Z,2.28
2023-04-02T05:07:37.696Z,2.05
2023-04-02T05:10:10.151Z,2.42
2023-04-02T05:12:43.226Z,1.33
2023-04-02T05:15:17.207Z,3.88
2023-04-02T05:17:51.666Z,1.35
2023-04-02T05:20:25.737Z,1.70
2023-04-02T05:23:00.113Z,1.85
2023-04-02T05:25:29.813Z,2.28
2023-04-02T05:28:05.780Z,2.83
2023-04-02T05:30:56.835Z,1.52
2023-04-02T05:33:28.345Z,2.15
2023-04-02T05:36:01.813Z,2.08
2023-04-02T05:38:35.120Z,2.85
2023-04-02T05:41:06.084Z,2.03
2023-04-02T05:46:15.981Z,1.90
2023-04-02T05:48:49.885Z,1.88
2023-04-02T05:51:21.923Z,2.88
2023-04-02T05:53:56.741Z,1.80
2023-04-02T05:56:29.355Z,3.28
2023-04-02T05:59:07.621Z,1.77
2023-04-02T06:01:41.800Z,2.17
2023-04-02T06:04:20.030Z,2.60
2023-04-02T06:06:52.900Z,2.35
2023-04-02T06:09:28.812Z,2.03
2023-04-02T06:12:04.197Z,2.47
2023-04-02T06:14:32.666Z,1.90
2023-04-02T06:17:01.073Z,2.25
2023-04-02T06:19:34.054Z,2.85
2023-04-02T06:22:11.879Z,2.20
2023-04-02T06:24:42.796Z,2.45
2023-04-02T06:27:14.170Z,2.28
2023-04-02T06:29:45.971Z,1.70
2023-04-02T06:32:14.602Z,2.05
2023-04-02T06:34:43.943Z,2.30
2023-04-02T06:37:22.895Z,1.98
2023-04-02T06:39:52.535Z,1.88
2023-04-02T06:42:23.525Z,2.03
2023-04-02T06:47:27.674Z,2.22
2023-04-02T06:50:01.975Z,2.47
2023-04-02T06:52:35.053Z,2.45
2023-04-02T06:55:22.721Z,2.30
2023-04-02T06:57:51.201Z,2.67
2023-04-02T07:00:27.034Z,2.65
2023-04-02T07:02:57.372Z,2.38
2023-04-02T07:05:25.754Z,2.75
2023-04-02T07:07:54.118Z,2.13
2023-04-02T07:10:23.689Z,1.83
2023-04-02T07:12:51.896Z,2.38
2023-04-02T07:15:20.723Z,2.17
2023-04-02T07:17:49.543Z,2.20
2023-04-02T07:20:27.969Z,3.22
2023-04-02T07:22:57.108Z,1.75
2023-04-02T07:25:28.542Z,1.52
2023-04-02T07:27:57.680Z,3.13
2023-04-02T07:30:25.888Z,2.80
2023-04-02T07:32:54.131Z,2.42
2023-04-02T07:35:22.771Z,2.95
2023-04-02T07:37:53.125Z,3.17
2023-04-02T07:40:24.311Z,2.40
2023-04-02T07:42:54.093Z,2.58
2023-04-02T07:45:22.421Z,2.92
2023-04-02T07:47:51.927Z,2.95
2023-04-02T07:50:20.411Z,2.33
2023-04-02T07:52:48.581Z,2.55
2023-04-02T07:55:17.810Z,3.20
2023-04-02T07:57:50.785Z,2.58
2023-04-02T08:00:22.581Z,3.45
2023-04-02T08:02:51.406Z,2.25
2023-04-02T08:05:20.069Z,2.58
2023-04-02T08:07:54.599Z,2.72
2023-04-02T08:10:23.929Z,2.45
2023-04-02T08:12:52.186Z,2.53
2023-04-02T08:15:21.784Z,3.70
2023-04-02T08:17:49.992Z,1.90
2023-04-02T08:20:19.783Z,3.10
2023-04-02T08:22:48.636Z,3.08
2023-04-02T08:25:17.463Z,3.45
2023-04-02T08:27:48.009Z,2.45
2023-04-02T08:30:17.197Z,2.10
2023-04-02T08:32:47.193Z,2.80
2023-04-02T08:35:17.447Z,2.47
2023-04-02T08:37:45.727Z,2.70
2023-04-02T08:40:24.020Z,2.50
2023-04-02T08:43:05.022Z,3.08
2023-04-02T08:45:43.594Z,3.25
2023-04-02T08:48:15.499Z,2.25
2023-04-02T08:50:45.484Z,2.53
2023-04-02T08:53:18.257Z,3.60
2023-04-02T08:55:55.724Z,2.97
2023-04-02T08:58:33.477Z,2.20
2023-04-02T09:01:04.635Z,3.33
2023-04-02T09:03:39.873Z,2.50
2023-04-02T09:06:13.425Z,4.55
2023-04-02T09:08:45.160Z,3.25
2023-04-02T09:11:21.575Z,3.15
2023-04-02T09:13:55.995Z,2.85
2023-04-02T09:16:37.923Z,2.60
2023-04-02T09:19:18.871Z,2.88
2023-04-02T09:21:56.967Z,2.78
2023-04-02T09:24:25.141Z,2.58
2023-04-02T09:26:53.348Z,2.20
2023-04-02T09:29:39.673Z,2.85
2023-04-02T09:32:26.393Z,3.17
2023-04-02T09:35:15.258Z,2.63
2023-04-02T09:38:17.124Z,3.08
2023-04-02T09:40:49.789Z,3.58
2023-04-02T09:43:20.502Z,2.03
2023-04-02T09:45:59.298Z,2.53
2023-04-02T09:48:31.366Z,3.50
2023-04-02T09:51:12.719Z,2.03
2023-04-02T09:53:42.849Z,3.38
2023-04-02T09:56:17.265Z,2.83
2023-04-02T09:58:47.405Z,3.00
2023-04-02T10:01:29.505Z,2.00
2023-04-02T10:03:59.644Z,2.25
2023-04-02T10:06:30.460Z,2.42
2023-04-02T10:08:59.304Z,2.03
2023-04-02T10:11:43.833Z,2.88
2023-04-02T10:14:20.568Z,2.78
2023-04-02T10:16:53.171Z,2.58
2023-04-02T10:19:30.838Z,3.08
2023-04-02T10:22:04.569Z,2.60
2023-04-02T10:24:32.857Z,3.25
2023-04-02T10:27:18.021Z,3.45
2023-04-02T10:30:16.966Z,3.22
2023-04-02T10:32:51.160Z,2.72
2023-04-02T10:35:29.242Z,2.58
2023-04-02T10:38:30.959Z,2.08
2023-04-02T10:41:05.538Z,3.85
2023-04-02T10:44:19.057Z,2.53
2023-04-02T10:47:00.035Z,2.60
2023-04-02T10:49:36.781Z,2.22
2023-04-02T10:52:13.523Z,3.45
2023-04-02T10:54:47.711Z,4.15
2023-04-02T10:57:30.290Z,1.98
2023-04-02T11:00:08.123Z,2.35
2023-04-02T11:02:42.955Z,3.33
2023-04-02T11:05:21.948Z,1.90
2023-04-02T11:08:02.008Z,2.55
2023-04-02T11:10:33.312Z,2.88
2023-04-02T11:13:08.903Z,2.67
2023-04-02T11:15:38.263Z,2.05
2023-04-02T11:18:06.748Z,2.75
2023-04-02T11:21:00.071Z,2.67
2023-04-02T11:23:31.304Z,2.25
2023-04-02T11:26:38.680Z,1.55
2023-04-02T11:29:21.091Z,1.98
2023-04-02T11:31:51.084Z,2.42
2023-04-02T11:35:05.699Z,2.30
2023-04-02T11:37:38.309Z,2.03
2023-04-02T11:40:48.843Z,1.92
2023-04-02T11:43:52.092Z,1.97
2023-04-02T11:46:46.914Z,2.55
2023-04-02T11:49:54.449Z,1.90
2023-04-02T11:52:26.684Z,2.22
2023-04-02T11:55:18.289Z,2.50
2023-04-02T11:58:21.088Z,2.10
2023-04-02T12:01:20.734Z,2.05
2023-04-02T12:04:14.140Z,2.05
2023-04-02T12:06:57.151Z,2.47
2023-04-02T12:09:27.657Z,1.75
2023-04-02T12:11:58.856Z,2.22
2023-04-02T12:14:42.680Z,2.40
2023-04-02T12:17:19.493Z,2.22
2023-04-02T12:19:54.738Z,2.22
2023-04-02T12:22:25.963Z,1.90
2023-04-02T12:24:57.765Z,1.98
2023-04-02T12:27:29.615Z,2.35
2023-04-02T12:30:12.569Z,2.15
2023-04-02T12:32:40.889Z,2.10
2023-04-02T12:35:29.370Z,3.75
2023-04-02T12:37:58.369Z,2.10
2023-04-02T12:40:27.597Z,1.58
2023-04-02T12:42:56.120Z,2.95
2023-04-02T12:45:27.918Z,1.60
2023-04-02T12:47:59.327Z,1.92
2023-04-02T12:50:29.055Z,1.90
2023-04-02T12:52:59.082Z,2.55
2023-04-02T12:55:28.963Z,2.25
2023-04-02T12:57:57.604Z,2.85
2023-04-02T13:00:43.804Z,1.77
2023-04-02T13:03:22.975Z,2.28
2023-04-02T13:05:57.860Z,2.03
2023-04-02T13:08:29.465Z,1.92
2023-04-02T13:11:00.092Z,1.63
2023-04-02T13:13:31.182Z,1.55
2023-04-02T13:18:38.048Z,2.53
2023-04-02T13:23:38.290Z,2.25
2023-04-02T13:26:18.412Z,1.37
2023-04-02T13:29:00.410Z,2.10
2023-04-02T13:31:29.418Z,2.28
2023-04-02T13:33:57.814Z,1.85
2023-04-02T13:36:29.463Z,1.88
2023-04-02T13:38:57.996Z,2.95
2023-04-02T13:41:27.898Z,1.92
2023-04-02T13:43:57.506Z,1.75
2023-04-02T13:46:27.756Z,1.92
2023-04-02T13:48:56.791Z,1.30
2023-04-02T13:51:29.617Z,2.22
2023-04-02T13:53:59.275Z,2.10
2023-04-02T13:56:27.522Z,2.17
2023-04-02T13:58:55.725Z,1.65
2023-04-02T14:01:25.324Z,2.20
2023-04-02T14:03:55.769Z,2.13
2023-04-02T14:06:31.913Z,2.17
2023-04-02T14:09:06.634Z,1.88
2023-04-02T14:11:47.981Z,1.85
2023-04-02T14:14:34.940Z,1.25
2023-04-02T14:17:15.786Z,1.75
2023-04-02T14:19:56.213Z,1.77
2023-04-02T14:22:36.027Z,1.70
2023-04-02T14:25:14.145Z,1.85
2023-04-02T14:27:50.280Z,1.38
2023-04-02T14:30:24.482Z,1.77
2023-04-02T14:33:01.514Z,1.98
2023-04-02T14:35:35.026Z,1.73
2023-04-02T14:38:13.234Z,2.47
2023-04-02T14:40:49.621Z,1.80
2023-04-02T14:43:23.684Z,1.15
2023-04-02T14:46:02.765Z,2.10
2023-04-02T14:48:42.646Z,2.35
2023-04-02T14:51:18.365Z,1.90
2023-04-02T14:53:53.863Z,6.78
2023-04-02T14:56:26.715Z,23.88
2023-04-02T14:59:04.234Z,27.40
2023-04-02T15:01:39.078Z,25.10
2023-04-02T15:04:13.269Z,27.05
2023-04-02T15:06:45.678Z,20.92
2023-04-02T15:09:20.046Z,29.38
2023-04-02T15:11:53.986Z,21.02
2023-04-02T15:14:27.798Z,24.05
2023-04-02T15:16:56.332Z,31.15
2023-04-02T15:19:24.598Z,32.63
2023-04-02T15:22:09.529Z,34.80
2023-04-02T15:24:47.780Z,24.40
2023-04-02T15:27:29.839Z,17.50
2023-04-02T15:30:04.483Z,30.02
2023-04-02T15:32:39.190Z,30.48
2023-04-02T15:35:24.051Z,23.02
2023-04-02T15:38:01.113Z,21.33
2023-04-02T15:40:51.648Z,26.08
2023-04-02T15:43:31.620Z,17.77
2023-04-02T15:46:17.655Z,17.05
2023-04-02T15:49:18.199Z,12.27
2023-04-02T15:52:01.606Z,19.07
2023-04-02T15:54:44.156Z,17.30
2023-04-02T15:57:23.557Z,64.40
2023-04-02T16:00:16.444Z,67.00
2023-04-02T16:03:24.959Z,50.67
2023-04-02T16:06:12.973Z,28.05
2023-04-02T16:08:57.350Z,33.80
2023-04-02T16:11:27.457Z,27.13
2023-04-02T16:14:05.694Z,31.05
2023-04-02T16:16:37.130Z,31.17
2023-04-02T16:19:16.044Z,27.88
2023-04-02T16:21:50.353Z,25.52
2023-04-02T16:24:18.884Z,22.80
2023-04-02T16:26:55.928Z,22.73
2023-04-02T16:29:51.210Z,22.30
2023-04-02T16:32:40.223Z,16.30
2023-04-02T16:35:41.767Z,21.33
2023-04-02T16:38:21.999Z,24.42
2023-04-02T16:41:07.784Z,22.63
2023-04-02T16:43:46.483Z,15.38
2023-04-02T16:46:38.144Z,21.60
2023-04-02T16:49:20.298Z,19.92
2023-04-02T16:51:59.578Z,17.15
2023-04-02T16:54:34.402Z,22.00
2023-04-02T16:57:20.979Z,18.00
2023-04-02T16:59:58.281Z,14.43
2023-04-02T17:02:39.802Z,18.75
2023-04-02T17:05:19.991Z,16.40
2023-04-02T17:08:01.544Z,16.58
2023-04-02T17:10:33.231Z,21.42
2023-04-02T17:13:17.755Z,17.70
2023-04-02T17:15:51.708Z,13.30
2023-04-02T17:18:21.816Z,15.40
2023-04-02T17:20:51.632Z,17.73
2023-04-02T17:23:21.578Z,15.18
2023-04-02T17:25:56.595Z,17.55
2023-04-02T17:28:29.528Z,13.80
2023-04-02T17:31:01.245Z,17.38
2023-04-02T17:33:29.720Z,16.02
2023-04-02T17:36:13.907Z,13.63
2023-04-02T17:38:51.136Z,18.20
2023-04-02T17:41:24.747Z,14.20
2023-04-02T17:43:58.224Z,19.08
2023-04-02T17:46:35.837Z,15.65
2023-04-02T17:49:13.100Z,12.60
2023-04-02T17:51:49.936Z,17.90
2023-04-02T17:54:30.948Z,17.77
2023-04-02T17:57:20.693Z,18.05
2023-04-02T18:00:01.890Z,16.38
2023-04-02T18:05:18.745Z,16.63
2023-04-02T18:07:57.914Z,13.73
2023-04-02T18:10:33.464Z,16.75
2023-04-02T18:13:09.726Z,19.02
2023-04-02T18:15:51.003Z,15.95
2023-04-02T18:18:39.979Z,14.35
2023-04-02T18:21:20.054Z,14.85
2023-04-02T18:24:03.387Z,12.85
2023-04-02T18:26:40.804Z,15.30
2023-04-02T18:29:21.140Z,17.83
2023-04-02T18:31:54.212Z,9.83
2023-04-02T18:34:38.598Z,10.85
2023-04-02T18:37:20.529Z,12.50
2023-04-02T18:40:07.078Z,12.80
2023-04-02T18:42:49.137Z,14.52
2023-04-02T18:45:22.608Z,12.88
2023-04-02T18:48:01.589Z,11.70
2023-04-02T18:50:33.202Z,14.02
2023-04-02T18:53:11.951Z,10.18
2023-04-02T18:55:46.751Z,9.13
2023-04-02T18:58:21.842Z,11.00
2023-04-02T19:00:52.137Z,10.45
2023-04-02T19:03:27.580Z,12.97
2023-04-02T19:06:02.530Z,10.15
2023-04-02T19:08:35.438Z,11.23
2023-04-02T19:11:09.984Z,14.93
2023-04-02T19:13:38.893Z,10.18
2023-04-02T19:16:26.572Z,15.35
2023-04-02T19:19:04.522Z,10.20
2023-04-02T19:21:43.002Z,9.68
2023-04-02T19:24:34.853Z,9.98
2023-04-02T19:27:09.399Z,11.15
2023-04-02T19:29:50.169Z,12.02
2023-04-02T19:32:28.657Z,10.68
2023-04-02T19:35:02.783Z,11.30
2023-04-02T19:37:37.983Z,7.93
2023-04-02T19:40:37.943Z,11.13
2023-04-02T19:43:10.112Z,9.18
2023-04-02T19:45:41.059Z,10.02
2023-04-02T19:48:15.516Z,7.38
2023-04-02T19:50:44.307Z,9.30
2023-04-02T19:53:12.965Z,8.43
2023-04-02T19:55:41.787Z,8.40
2023-04-02T19:58:19.719Z,13.32
2023-04-02T20:00:48.415Z,8.63
2023-04-02T20:03:16.788Z,7.95
2023-04-02T20:05:45.138Z,11.82
2023-04-02T20:08:13.859Z,8.90
2023-04-02T20:10:42.537Z,11.25
2023-04-02T20:13:10.854Z,6.72
2023-04-02T20:15:42.297Z,7.25
2023-04-02T20:18:11.477Z,10.48
2023-04-02T20:20:40.385Z,6.57
2023-04-02T20:23:08.654Z,13.10
2023-04-02T20:25:37.055Z,7.40
2023-04-02T20:28:05.567Z,6.88
2023-04-02T20:30:34.159Z,8.43
2023-04-02T20:33:04.225Z,9.57
2023-04-02T20:35:34.798Z,7.70
2023-04-02T20:38:06.555Z,8.30
2023-04-02T20:40:35.371Z,7.55
2023-04-02T20:43:03.938Z,7.03
2023-04-02T20:45:32.384Z,6.88
2023-04-02T20:48:00.899Z,8.85
2023-04-02T20:50:31.218Z,9.13
2023-04-02T20:53:01.201Z,8.80
2023-04-02T20:55:29.581Z,6.93
2023-04-02T20:57:58.031Z,8.07
2023-04-02T21:00:26.566Z,9.02
2023-04-02T21:02:54.997Z,7.10
2023-04-02T21:05:23.293Z,11.02
2023-04-02T21:07:53.071Z,8.02
2023-04-02T21:10:21.476Z,7.22
2023-04-02T21:12:50.140Z,7.90
2023-04-02T21:15:18.592Z,9.32
2023-04-02T21:17:46.868Z,7.28
2023-04-02T21:20:15.117Z,11.52
2023-04-02T21:22:43.566Z,7.07
2023-04-02T21:25:13.298Z,9.82
2023-04-02T21:27:41.844Z,6.30
2023-04-02T21:30:11.205Z,7.75
2023-04-02T21:32:39.744Z,7.93
2023-04-02T21:35:10.050Z,7.95
2023-04-02T21:37:38.351Z,7.47
2023-04-02T21:40:08.241Z,7.00
2023-04-02T21:42:38.542Z,7.72
2023-04-02T21:45:07.746Z,6.17
2023-04-02T21:47:36.087Z,5.68
2023-04-02T21:50:04.442Z,7.90
2023-04-02T21:52:32.703Z,8.48
2023-04-02T21:55:01.133Z,7.60
2023-04-02T21:57:29.468Z,5.45
2023-04-02T21:59:59.597Z,6.88
2023-04-02T22:02:27.854Z,5.47
2023-04-02T22:04:56.216Z,7.28
2023-04-02T22:07:24.676Z,5.57
2023-04-02T22:09:52.943Z,7.82
2023-04-02T22:12:21.636Z,6.13
2023-04-02T22:14:49.909Z,7.20
2023-04-02T22:17:19.577Z,7.07
2023-04-02T22:19:47.810Z,6.97
2023-04-02T22:22:16.306Z,7.07
2023-04-02T22:24:44.700Z,6.60
2023-04-02T22:27:13.627Z,5.78
2023-04-02T22:29:41.885Z,5.63
2023-04-02T22:32:10.365Z,5.47
2023-04-02T22:34:45.567Z,8.45
2023-04-02T22:37:14.021Z,6.85
2023-04-02T22:39:42.345Z,4.72
2023-04-02T22:42:10.696Z,6.45
2023-04-02T22:44:39.049Z,5.28
2023-04-02T22:47:07.365Z,5.82
2023-04-02T22:49:35.772Z,5.38
2023-04-02T22:52:06.950Z,6.65
2023-04-02T22:54:35.260Z,4.97
2023-04-02T22:57:03.931Z,4.82
2023-04-02T22:59:32.359Z,6.72
2023-04-02T23:02:01.011Z,8.93
2023-04-02T23:04:29.408Z,6.22
2023-04-02T23:06:57.713Z,4.28
2023-04-02T23:09:27.456Z,6.45
2023-04-02T23:11:55.726Z,4.53
2023-04-02T23:14:24.084Z,5.07
2023-04-02T23:16:52.343Z,7.70
2023-04-02T23:19:20.730Z,5.15
2023-04-02T23:21:49.069Z,4.95
2023-04-02T23:24:17.815Z,5.32
2023-04-02T23:26:47.617Z,5.95
2023-04-02T23:29:15.913Z,4.10
2023-04-02T23:31:44.141Z,5.35
2023-04-02T23:34:13.052Z,7.50
2023-04-02T23:36:41.458Z,6.25
2023-04-02T23:39:12.446Z,4.90
2023-04-02T23:44:11.551Z,3.78
2023-04-02T23:46:39.842Z,5.20
2023-04-02T23:49:10.085Z,7.95
2023-04-02T23:51:38.471Z,5.30
2023-04-02T23:54:06.836Z,7.75
2023-04-02T23:56:35.220Z,4.43
2023-04-02T23:59:03.618Z,4.85
